Terminal Aerodrome Forecast
Issued by NWS Buffalo, NY

Home | Current Version | Previous Version | Text Only | Print | Product List | Glossary On
Versions: 1 2 3 4 5 6 7 8 9 10 11 12 13 14 15 16 17 18 19 20 21 22 23 24 25 26 27
582
FTUS41 KBUF 062121 AAA
TAFART
TAF AMD
KART 062121Z 0621/0718 08004KT P6SM OVC200
     FM062300 07006KT P6SM OVC110
     FM070300 09005KT 6SM -RA OVC070
     FM070600 12004KT 6SM -RA OVC020
     FM070900 16005KT 6SM -RA OVC012
     FM071300 20015KT 6SM -RA OVC015
     FM071500 24018G26KT P6SM OVC020=

USA.gov is the U.S. government's official web portal to all federal, state and local government web resources and services.